DABC/CZL METAR and TAF weather

Enter ICAO airport designator
Station Type Date Time Source
DABC METAR 2022/01/18 07:30 UTC NOAA

DABC 180730Z VRB02KT 4000 BR FEW010 M02/M03 Q1032


Station Type Date Time Source
DABC Decoded METAR 2022/01/18 07:30 UTC NOAA

Constantine, Algeria (DABC) 36-17N 006-37E 694M
Jan 18, 2022 - 02:30 AM EST / 2022.01.18 0730 UTC
Wind: Variable at 2 MPH (2 KT):0
Visibility: 2 mile(s):0
Sky conditions: mostly clear
Weather: mist
Temperature: 28 F (-2 C)
Dew Point: 26 F (-3 C)
Relative Humidity: 92%
Pressure (altimeter): 30.47 in. Hg (1032 hPa)
ob: DABC 180730Z VRB02KT 4000 BR FEW010 M02/M03 Q1032
cycle: 7

Station Type Date Time Source
DABC TAF 2022/01/18 06:41 UTC NOAA

TAF DABC 180500Z 1806/1906 VRB02KT 0100 FZFG BKN002
TEMPO 1806/1809 2000 BR BKN010
BECMG 1809/1811 30008KT 6000 FEW030

Example: see airport list